Sunday, January 20, 2019, 6:54 AM GMT
Back to Local

CWPE, Point Lepreau, N. B.

Location: , , Canada Lat: 45.067
Local Time: 6:54 AM GMT ( 6:54 GMT) Lon: -66.467
Time Zone: GMT Elev: 3 ft

Show me the last for .
Show Decoded

2019-01-20 06:00 METAR CWPE 200600Z AUTO 03009G15KT M15/M18 RMK AO1 SOG 01 8022 SLP267 T11471183
                 =
2019-01-20 05:00 METAR CWPE 200500Z AUTO 02007KT M15/M19 RMK AO1 SOG 01 8017 SLP279 T11501186 =
2019-01-20 04:00 METAR CWPE 200400Z AUTO 02006KT M15/M19 RMK AO1 SOG 01 6012 SLP287 T11501187 =
2019-01-20 03:00 METAR CWPE 200300Z AUTO 02006KT M15/M20 RMK AO1 SOG 01 8010 SLP289 T11511196 =
2019-01-20 02:00 METAR CWPE 200200Z AUTO 01004KT M14/M22 RMK AO1 SOG 01 8004 SLP296 T11441217 =
2019-01-20 01:00 METAR CWPE 200100Z AUTO 36004KT M14/M22 RMK AO1 SOG 01 1007 SLP299 T11421224 =
2019-01-20 00:00 METAR CWPE 200000Z AUTO 35005KT M14/M22 RMK AO1 SOG 02 0021 SLP299 T11381216 =
2019-01-19 23:00 METAR CWPE 192300Z AUTO 34005KT M13/M22 RMK AO1 SOG 02 2030 SLP300 T11301220 =
2019-01-19 22:00 METAR CWPE 192200Z AUTO 34005KT M12/M22 RMK AO1 SOG 02 3017 SLP292 T11151224 =
2019-01-19 21:00 METAR CWPE 192100Z AUTO 33005KT M12/M24 RMK AO1 SOG 02 3009 SLP278 T11201235 =
2019-01-19 20:00 METAR CWPE 192000Z AUTO 35004KT M11/M25 RMK AO1 SOG 01 8001 SLP270 T11101249 =
2019-01-19 19:00 METAR CWPE 191900Z AUTO 35005KT M11/M25 RMK AO1 SOG 01 3002 SLP275 T11061251 =
2019-01-19 18:00 METAR CWPE 191800Z AUTO 35005KT M11/M24 RMK AO1 SOG 02 8003 SLP269 T11061242 =
2019-01-19 17:00 METAR CWPE 191700Z AUTO 34008KT M11/M24 RMK AO1 SOG 02 0010 SLP271 T11091240 =
2019-01-19 16:00 METAR CWPE 191600Z AUTO 33010G16KT M12/M25 RMK AO1 SOG 02 1026 PK WND 35020/1517
                 SLP273 T11191253 =
2019-01-19 15:00 METAR CWPE 191500Z AUTO 34011G17KT M12/M23 RMK AO1 SOG 02 2036 PK WND 33019/1430
                 SLP272 T11211229 =
2019-01-19 14:00 METAR CWPE 191400Z AUTO 34009G16KT M12/M22 RMK AO1 SOG 02 3037 PK WND 33018/1304
                 SLP261 T11211215 =
2019-01-19 13:00 METAR CWPE 191300Z AUTO 35007KT M12/M18 RMK AO1 SOG 02 2034 PK WND 35018/1239
                 SLP247 T11201175 =
2019-01-19 12:00 METAR CWPE 191200Z AUTO 34009G15KT M11/M17 RMK AO1 SOG 02 2035 SLP236 T11121172
                 =
2019-01-19 11:00 METAR CWPE 191100Z AUTO 32010G16KT M09/M17 RMK AO1 SOG 02 2034 PK WND 34018/1007
                 SLP224 T10931169 =
2019-01-19 10:00 METAR CWPE 191000Z AUTO 32010G19KT M08/M16 RMK AO1 SOG 02 2035 PK WND 30019/0956
                 SLP213 T10811160 =
2019-01-19 09:00 METAR CWPE 190900Z AUTO 32007G15KT M06/M15 RMK AO1 SOG 02 1035 PK WND 33017/0821
                 SLP201 T10641149 =
2019-01-19 08:00 METAR CWPE 190800Z AUTO 32010G17KT M05/M15 RMK AO1 SOG 02 3034 PK WND 33018/0734
                 SLP190 T10531150 =
2019-01-19 07:00 METAR CWPE 190700Z AUTO 32011G21KT M03/M09 RMK AO1 SOG 02 3025 PK WND 32024/0642
                 SLP178 T10281087 =

Support USWX by starting your Amazon purchase here.